Terminal Aerodrome Forecast
Issued by NWS

Home | Current Version | Previous Version | Text Only | Print | Product List | Glossary On
Versions: 1 2 3 4 5 6 7 8 9 10 11 12 13 14 15 16 17 18 19 20 21 22 23 24 25 26 27 28 29 30 31 32 33 34 35 36
000
FTUS45 KGGW 290000 AAA
TAFOLF
TAF AMD
KOLF 290015Z 2900/2924 VRB06KT 5SM BR SCT008 BKN160
     FM290400 02006KT 5SM BR BKN006 OVC090
     FM290900 33012KT P6SM SCT008 OVC025
     FM291200 33014KT P6SM VCSH OVC029
     FM291800 32015KT 1/2SM -SHSN BLSN BKN029=

USA.gov is the U.S. government's official web portal to all federal, state and local government web resources and services.